Time;durP1;ratioP1;P1;durP2;ratioP2;P2;SDS_P1;SDS_P2;PMS_P1;PMS_P2;Temp;Humidity;BMP_temperature;BMP_pressure;BME280_temperature;BME280_humidity;BME280_pressure;Samples;Min_cycle;Max_cycle;Signal;HPM_P1;HPM_P2
2021/03/03 00:00:07;;;;;;;21.83;14.80;;;4.60;99.90;;;;;;5025929;28;20278;-47
2021/03/03 00:02:34;;;;;;;21.50;14.13;;;4.70;99.90;;;;;;5026326;28;20235;-48
2021/03/03 00:05:02;;;;;;;20.10;14.10;;;4.70;99.90;;;;;;5032021;28;20252;-46
2021/03/03 00:07:30;;;;;;;20.07;14.53;;;4.60;99.90;;;;;;5032589;28;20660;-46
2021/03/03 00:09:57;;;;;;;20.33;14.07;;;4.70;99.90;;;;;;5025458;28;20323;-46
2021/03/03 00:12:24;;;;;;;20.63;14.23;;;4.70;99.90;;;;;;5040526;28;20788;-46
2021/03/03 00:14:52;;;;;;;20.30;13.87;;;4.80;99.90;;;;;;5045204;28;20250;-46
2021/03/03 00:17:20;;;;;;;22.87;14.70;;;4.90;99.90;;;;;;5008401;28;20546;-46
2021/03/03 00:19:47;;;;;;;19.63;13.90;;;4.80;99.90;;;;;;5004988;28;20303;-47
2021/03/03 00:22:14;;;;;;;20.03;14.20;;;4.80;99.90;;;;;;5004541;28;20286;-46
2021/03/03 00:24:42;;;;;;;20.17;14.07;;;4.70;99.90;;;;;;5007643;28;20840;-49
2021/03/03 00:27:09;;;;;;;19.03;13.63;;;4.60;99.90;;;;;;5005311;28;20245;-46
2021/03/03 00:29:39;;;;;;;20.40;13.13;;;4.40;99.90;;;;;;5004464;28;20566;-46
2021/03/03 00:32:07;;;;;;;21.17;14.30;;;4.30;99.90;;;;;;5004120;28;20265;-46
2021/03/03 00:34:35;;;;;;;19.57;13.10;;;4.50;99.90;;;;;;5013548;28;20848;-45
2021/03/03 00:37:05;;;;;;;20.73;13.87;;;4.60;99.90;;;;;;5027651;28;20275;-45
2021/03/03 00:39:33;;;;;;;21.20;14.80;;;4.30;99.90;;;;;;5025705;28;20241;-46
2021/03/03 00:42:00;;;;;;;20.13;13.23;;;4.20;99.90;;;;;;5028991;28;20689;-46
2021/03/03 00:44:52;;;;;;;20.77;13.80;;;4.10;99.90;;;;;;5034785;28;20544;-46
2021/03/03 00:47:24;;;;;;;21.27;15.20;;;4.10;99.90;;;;;;5033959;28;20238;-45
2021/03/03 00:49:53;;;;;;;20.20;14.07;;;4.00;99.90;;;;;;5045114;28;20513;-46
2021/03/03 00:52:21;;;;;;;22.67;13.47;;;4.00;99.90;;;;;;5040507;28;20483;-46
2021/03/03 00:54:48;;;;;;;21.27;14.07;;;4.00;99.90;;;;;;5034550;28;20477;-46
2021/03/03 00:57:16;;;;;;;18.57;13.50;;;3.90;99.90;;;;;;5036352;28;20556;-46
2021/03/03 00:59:45;;;;;;;20.90;13.90;;;4.00;99.90;;;;;;5059531;28;20813;-46
2021/03/03 01:02:12;;;;;;;22.30;14.30;;;4.00;99.90;;;;;;5067977;28;20505;-47
2021/03/03 01:04:41;;;;;;;19.10;12.33;;;4.00;99.90;;;;;;5039511;28;20576;-46
2021/03/03 01:07:08;;;;;;;18.17;12.53;;;3.90;99.90;;;;;;5054172;28;20494;-47
2021/03/03 01:09:35;;;;;;;19.47;12.67;;;4.10;99.90;;;;;;5035019;28;20519;-46
2021/03/03 01:12:03;;;;;;;17.87;13.30;;;4.20;99.90;;;;;;5051638;28;20481;-46
2021/03/03 01:14:32;;;;;;;18.13;12.63;;;4.10;99.90;;;;;;5033163;28;20564;-46
2021/03/03 01:17:00;;;;;;;18.53;13.13;;;4.00;99.90;;;;;;5024747;28;20515;-46
2021/03/03 01:19:35;;;;;;;19.77;12.57;;;4.00;99.90;;;;;;5027378;28;20609;-46
2021/03/03 01:22:03;;;;;;;18.33;12.23;;;4.20;99.90;;;;;;5028686;28;20486;-46
2021/03/03 01:24:30;;;;;;;18.17;12.87;;;4.10;99.90;;;;;;5029761;28;20487;-46
2021/03/03 01:26:58;;;;;;;17.10;12.20;;;3.80;99.90;;;;;;5029492;28;20531;-46
2021/03/03 01:29:25;;;;;;;19.97;12.63;;;3.80;99.90;;;;;;5059296;28;20523;-47
2021/03/03 01:31:52;;;;;;;19.80;13.30;;;3.90;99.90;;;;;;5049638;28;20483;-46
2021/03/03 01:34:20;;;;;;;20.30;13.80;;;3.80;99.90;;;;;;5038231;28;20486;-46
2021/03/03 01:36:48;;;;;;;21.53;14.20;;;3.70;99.90;;;;;;5035745;28;20526;-46
2021/03/03 01:39:16;;;;;;;19.50;14.13;;;3.60;99.90;;;;;;5034092;28;20485;-46
2021/03/03 01:41:44;;;;;;;18.33;12.60;;;3.70;99.90;;;;;;5028174;28;20494;-46
2021/03/03 01:44:11;;;;;;;21.10;14.40;;;3.80;99.90;;;;;;5029040;28;20513;-46
2021/03/03 01:46:38;;;;;;;19.43;12.37;;;3.70;99.90;;;;;;5027759;28;20893;-46
2021/03/03 01:49:06;;;;;;;19.37;13.73;;;3.80;99.90;;;;;;5028272;28;20995;-46
2021/03/03 01:51:34;;;;;;;19.93;14.40;;;3.70;99.90;;;;;;5029423;28;20849;-47
2021/03/03 01:54:01;;;;;;;21.37;14.10;;;3.70;99.90;;;;;;5048599;28;20527;-46
2021/03/03 01:56:30;;;;;;;20.03;12.40;;;3.50;99.90;;;;;;5048175;28;20569;-47
2021/03/03 01:58:57;;;;;;;19.10;12.70;;;3.70;99.90;;;;;;5052024;28;20465;-47
2021/03/03 02:01:25;;;;;;;21.43;14.63;;;3.80;99.90;;;;;;5050587;28;20466;-46
2021/03/03 02:03:52;;;;;;;19.43;14.17;;;3.60;99.90;;;;;;5032535;28;20578;-47
2021/03/03 02:06:26;;;;;;;21.17;14.03;;;3.40;99.90;;;;;;5036409;28;20559;-47
2021/03/03 02:09:02;;;;;;;21.53;13.87;;;3.30;99.90;;;;;;5038962;28;20505;-47
2021/03/03 02:11:40;;;;;;;17.33;11.53;;;3.20;99.90;;;;;;5047990;28;20476;-46
2021/03/03 02:14:13;;;;;;;22.33;14.47;;;3.40;99.90;;;;;;5048616;28;20508;-46
2021/03/03 02:16:41;;;;;;;20.70;14.63;;;3.50;99.90;;;;;;5046591;28;20518;-46
2021/03/03 02:19:19;;;;;;;23.30;14.43;;;3.50;99.90;;;;;;5053507;28;20490;-46
2021/03/03 02:21:54;;;;;;;20.47;13.80;;;3.40;99.90;;;;;;5067522;28;21066;-47
2021/03/03 02:24:25;;;;;;;21.67;14.07;;;3.30;99.90;;;;;;5037882;28;20481;-45
2021/03/03 02:26:54;;;;;;;23.37;14.63;;;3.10;99.90;;;;;;5028409;28;20479;-46
2021/03/03 02:29:27;;;;;;;22.07;14.60;;;3.00;99.90;;;;;;5018333;28;20514;-46
2021/03/03 02:32:01;;;;;;;22.03;14.50;;;3.00;99.90;;;;;;5026663;28;20479;-47
2021/03/03 02:34:31;;;;;;;22.83;14.80;;;3.00;99.90;;;;;;5046613;28;21046;-47
2021/03/03 02:36:59;;;;;;;24.07;14.70;;;2.90;99.90;;;;;;5047992;28;20492;-45
2021/03/03 02:39:29;;;;;;;23.30;14.90;;;2.90;99.90;;;;;;5047601;28;21053;-45
2021/03/03 02:41:59;;;;;;;22.87;15.40;;;2.90;99.90;;;;;;5047108;28;20478;-46
2021/03/03 02:44:28;;;;;;;24.97;14.30;;;2.90;99.90;;;;;;5048202;28;20581;-46
2021/03/03 02:46:55;;;;;;;23.03;13.63;;;2.80;99.90;;;;;;5039160;28;20600;-46
2021/03/03 02:49:23;;;;;;;24.47;14.50;;;3.10;99.90;;;;;;5047204;28;20876;-46
2021/03/03 02:51:50;;;;;;;24.93;14.60;;;3.30;99.90;;;;;;5047254;28;20570;-46
2021/03/03 02:54:18;;;;;;;23.33;15.13;;;3.30;99.90;;;;;;5047812;28;20462;-47
2021/03/03 02:56:47;;;;;;;22.30;14.33;;;3.50;99.90;;;;;;5046949;28;20581;-46
2021/03/03 02:59:28;;;;;;;21.60;14.80;;;3.40;99.90;;;;;;5039958;28;20489;-46
2021/03/03 03:02:03;;;;;;;24.63;15.47;;;3.10;99.90;;;;;;5025101;28;20489;-46
2021/03/03 03:04:34;;;;;;;22.87;14.80;;;2.90;99.90;;;;;;5026793;28;20489;-46
2021/03/03 03:07:07;;;;;;;24.53;15.27;;;2.80;99.90;;;;;;5027299;28;20484;-46
2021/03/03 03:09:37;;;;;;;23.00;13.57;;;2.70;99.90;;;;;;5027031;28;20863;-46
2021/03/03 03:12:07;;;;;;;21.77;15.00;;;2.80;99.90;;;;;;5026600;28;20983;-45
2021/03/03 03:14:36;;;;;;;26.70;15.30;;;2.80;99.90;;;;;;5027148;28;20582;-49
2021/03/03 03:17:03;;;;;;;22.13;14.53;;;2.70;99.90;;;;;;5025688;28;20505;-46
2021/03/03 03:19:37;;;;;;;22.52;14.95;;;2.80;99.90;;;;;;4624793;28;10001550;-46
2021/03/03 03:22:07;;;;;;;22.55;14.55;;;2.70;99.90;;;;;;1383793;28;10002140;-46
2021/03/03 03:24:37;;;;;;;24.33;14.93;;;2.60;99.90;;;;;;5027574;28;20730;-45
2021/03/03 03:27:05;;;;;;;22.53;14.50;;;2.50;99.90;;;;;;5043785;28;20566;-47
2021/03/03 03:29:33;;;;;;;23.10;14.63;;;2.50;99.90;;;;;;5031132;28;20519;-46
2021/03/03 03:32:22;;;;;;;24.80;14.80;;;2.50;99.90;;;;;;5031604;28;20511;-46
2021/03/03 03:34:50;;;;;;;21.87;14.23;;;2.50;99.90;;;;;;5042721;28;20479;-46
2021/03/03 03:37:19;;;;;;;23.07;13.80;;;2.60;99.90;;;;;;5047227;28;20497;-46
2021/03/03 03:39:46;;;;;;;23.67;15.30;;;2.90;99.90;;;;;;5046232;28;20719;-46
2021/03/03 03:42:16;;;;;;;24.03;15.50;;;2.90;99.90;;;;;;5045866;28;20493;-46
2021/03/03 03:44:44;;;;;;;21.60;14.70;;;2.90;99.90;;;;;;5043471;28;20526;-46
2021/03/03 03:47:16;;;;;;;23.93;15.27;;;2.70;99.90;;;;;;5053120;28;20559;-46
2021/03/03 03:49:46;;;;;;;22.87;13.60;;;2.50;99.90;;;;;;5065978;28;20486;-46
2021/03/03 03:52:16;;;;;;;25.33;15.63;;;2.90;99.90;;;;;;5065610;28;20505;-46
2021/03/03 03:54:49;;;;;;;23.30;15.07;;;2.80;99.90;;;;;;5049485;28;22043;-46
2021/03/03 03:57:17;;;;;;;19.50;13.47;;;2.60;99.90;;;;;;5038630;28;20503;-46
2021/03/03 03:59:45;;;;;;;21.10;13.47;;;2.60;99.90;;;;;;5028474;28;21015;-46
2021/03/03 04:02:12;;;;;;;27.27;16.87;;;2.80;99.90;;;;;;5032339;28;20520;-46
2021/03/03 04:04:40;;;;;;;26.10;16.93;;;2.70;99.90;;;;;;5037748;28;20485;-46
2021/03/03 04:07:08;;;;;;;24.70;15.83;;;2.50;99.90;;;;;;5033817;28;20480;-45
2021/03/03 04:09:40;;;;;;;23.80;15.17;;;2.50;99.90;;;;;;5024971;28;21013;-47
2021/03/03 04:12:08;;;;;;;26.37;14.60;;;2.90;99.90;;;;;;5041086;28;20474;-46
2021/03/03 04:14:37;;;;;;;26.60;16.10;;;3.00;99.90;;;;;;5040304;28;20610;-46
2021/03/03 04:17:04;;;;;;;27.77;16.07;;;2.80;99.90;;;;;;5049866;28;20564;-46
2021/03/03 04:19:32;;;;;;;23.70;15.73;;;2.80;99.90;;;;;;5031191;28;20495;-46
2021/03/03 04:21:59;;;;;;;24.07;15.07;;;3.00;99.90;;;;;;5025333;28;20478;-47
2021/03/03 04:24:27;;;;;;;26.50;16.03;;;2.90;99.90;;;;;;5034783;28;20506;-46
2021/03/03 04:26:55;;;;;;;24.47;16.13;;;2.90;99.90;;;;;;5046970;28;21220;-47
2021/03/03 04:29:22;;;;;;;24.77;14.97;;;2.80;99.90;;;;;;5045935;28;20964;-48
2021/03/03 04:31:49;;;;;;;26.67;15.63;;;2.70;99.90;;;;;;5045232;28;20539;-46
2021/03/03 04:34:17;;;;;;;25.77;15.90;;;2.70;99.90;;;;;;5035752;28;20490;-46
2021/03/03 04:36:44;;;;;;;23.77;14.73;;;2.60;99.90;;;;;;5044989;28;21087;-46
2021/03/03 04:39:11;;;;;;;26.13;16.43;;;2.70;99.90;;;;;;5026343;28;20540;-46
2021/03/03 04:41:39;;;;;;;27.63;16.37;;;2.70;99.90;;;;;;5026322;28;20487;-46
2021/03/03 04:44:07;;;;;;;31.17;19.33;;;2.70;99.90;;;;;;5035101;28;21063;-46
2021/03/03 04:46:34;;;;;;;24.30;15.80;;;2.60;99.90;;;;;;5046368;28;20531;-46
2021/03/03 04:49:02;;;;;;;31.17;18.63;;;2.70;99.90;;;;;;5045715;28;20488;-46
2021/03/03 04:51:29;;;;;;;30.57;16.57;;;2.80;99.90;;;;;;5046343;28;20927;-45
2021/03/03 04:53:56;;;;;;;30.77;17.27;;;2.90;99.90;;;;;;5038878;28;20901;-46
2021/03/03 04:56:24;;;;;;;32.33;19.57;;;2.80;99.90;;;;;;5040082;28;21012;-46
2021/03/03 04:58:52;;;;;;;29.90;17.27;;;2.70;99.90;;;;;;5031110;28;20469;-46
2021/03/03 05:01:19;;;;;;;32.90;18.57;;;2.80;99.90;;;;;;5033809;28;20474;-46
2021/03/03 05:03:47;;;;;;;29.27;18.17;;;3.00;99.90;;;;;;5034313;28;20494;-47
2021/03/03 05:06:15;;;;;;;30.30;18.93;;;2.90;99.90;;;;;;5026314;28;20534;-46
2021/03/03 05:08:42;;;;;;;24.83;14.80;;;2.80;99.90;;;;;;5025782;28;20884;-46
2021/03/03 05:11:10;;;;;;;28.47;16.77;;;2.80;99.90;;;;;;5025697;28;20491;-47
2021/03/03 05:13:37;;;;;;;28.23;15.53;;;2.90;99.90;;;;;;5034788;28;21036;-48
2021/03/03 05:16:06;;;;;;;34.80;18.87;;;2.70;99.90;;;;;;5051773;28;20481;-48
2021/03/03 05:18:33;;;;;;;24.87;15.13;;;2.80;99.90;;;;;;5045628;28;20476;-47
2021/03/03 05:21:00;;;;;;;27.50;16.27;;;2.80;99.90;;;;;;5046611;28;20536;-46
2021/03/03 05:23:29;;;;;;;27.13;16.33;;;2.60;99.90;;;;;;5034065;28;21088;-46
2021/03/03 05:25:57;;;;;;;25.93;15.93;;;2.60;99.90;;;;;;5042071;28;20483;-46
2021/03/03 05:28:24;;;;;;;27.67;16.63;;;2.50;99.90;;;;;;5035264;28;20839;-46
2021/03/03 05:30:52;;;;;;;29.70;17.20;;;2.30;99.90;;;;;;5048189;28;20670;-46
2021/03/03 05:33:25;;;;;;;30.37;18.13;;;2.30;99.90;;;;;;5049265;28;20479;-46
2021/03/03 05:35:54;;;;;;;27.03;16.30;;;2.30;99.90;;;;;;5046005;28;20526;-46
2021/03/03 05:38:22;;;;;;;31.23;18.70;;;2.50;99.90;;;;;;5049736;28;20471;-46
2021/03/03 05:40:51;;;;;;;30.43;18.63;;;2.30;99.90;;;;;;5059257;28;20988;-46
2021/03/03 05:43:20;;;;;;;29.17;16.47;;;2.40;99.90;;;;;;5065392;28;20482;-45
2021/03/03 05:45:51;;;;;;;32.67;18.13;;;2.70;99.90;;;;;;5052243;28;20553;-49
2021/03/03 05:48:26;;;;;;;35.80;18.93;;;2.60;99.90;;;;;;5057205;28;20478;-46
2021/03/03 05:50:58;;;;;;;34.53;18.83;;;2.80;99.90;;;;;;5058562;28;21041;-48
2021/03/03 05:53:26;;;;;;;34.03;18.70;;;2.70;99.90;;;;;;5047252;28;20526;-47
2021/03/03 05:55:57;;;;;;;37.23;19.30;;;2.70;99.90;;;;;;5043279;28;20822;-48
2021/03/03 05:58:27;;;;;;;35.57;20.00;;;2.80;99.90;;;;;;5046728;28;20555;-48
2021/03/03 06:00:56;;;;;;;30.23;17.00;;;2.80;99.90;;;;;;5043748;28;20881;-46
2021/03/03 06:03:26;;;;;;;36.43;19.87;;;2.80;99.90;;;;;;5032828;28;20488;-45
2021/03/03 06:05:54;;;;;;;31.30;17.57;;;2.60;99.90;;;;;;5029333;28;20479;-47
2021/03/03 06:08:23;;;;;;;35.03;19.17;;;2.70;99.90;;;;;;5029454;28;21030;-48
2021/03/03 06:10:50;;;;;;;35.33;19.70;;;2.70;99.90;;;;;;5028295;28;20625;-46
2021/03/03 06:13:18;;;;;;;31.83;18.50;;;2.70;99.90;;;;;;5023911;28;20544;-45
2021/03/03 06:15:46;;;;;;;35.73;21.20;;;2.80;99.90;;;;;;5023620;28;20479;-46
2021/03/03 06:18:15;;;;;;;34.47;19.90;;;2.70;99.90;;;;;;5024255;28;20497;-46
2021/03/03 06:20:49;;;;;;;37.93;21.03;;;2.80;99.90;;;;;;5027973;28;20506;-46
2021/03/03 06:23:18;;;;;;;40.13;20.27;;;2.70;99.90;;;;;;5025002;28;20835;-47
2021/03/03 06:25:48;;;;;;;41.03;21.63;;;2.80;99.90;;;;;;5027245;28;20482;-46
2021/03/03 06:28:31;;;;;;;43.70;22.93;;;3.10;99.90;;;;;;5028101;28;20494;-47
2021/03/03 06:30:59;;;;;;;42.27;21.93;;;3.20;99.90;;;;;;5020957;28;20573;-46
2021/03/03 06:33:27;;;;;;;46.80;24.27;;;2.90;99.90;;;;;;5027141;28;20479;-47
2021/03/03 06:35:55;;;;;;;39.87;22.20;;;3.00;99.90;;;;;;5060438;28;20475;-49
2021/03/03 06:38:28;;;;;;;31.37;18.00;;;2.70;99.90;;;;;;5043663;28;20565;-46
2021/03/03 06:40:57;;;;;;;37.53;21.73;;;2.80;99.90;;;;;;5032212;28;20475;-48
2021/03/03 06:43:29;;;;;;;30.93;18.13;;;2.90;99.90;;;;;;5025247;28;20844;-45
2021/03/03 06:46:15;;;;;;;32.53;17.03;;;2.70;99.90;;;;;;5028180;28;20478;-46
2021/03/03 06:48:45;;;;;;;37.33;20.43;;;3.00;99.90;;;;;;5023235;28;20838;-47
2021/03/03 06:51:28;;;;;;;39.17;22.90;;;3.10;99.90;;;;;;5022400;28;20525;-46
2021/03/03 06:53:58;;;;;;;34.27;20.00;;;2.90;99.90;;;;;;5036268;28;20937;-47
2021/03/03 06:56:37;;;;;;;28.77;18.40;;;2.90;99.90;;;;;;5047339;28;20986;-47
2021/03/03 06:59:14;;;;;;;32.67;17.70;;;3.10;99.90;;;;;;5045444;28;20692;-45
2021/03/03 07:01:42;;;;;;;29.50;19.17;;;3.30;99.90;;;;;;5044274;28;20481;-46
2021/03/03 07:04:28;;;;;;;30.07;17.67;;;3.10;99.90;;;;;;5047081;28;20510;-46
2021/03/03 07:06:58;;;;;;;30.47;17.77;;;3.00;99.90;;;;;;5027902;28;20485;-47
2021/03/03 07:09:37;;;;;;;28.30;17.17;;;3.00;99.90;;;;;;5022297;28;20483;-45
2021/03/03 07:12:07;;;;;;;30.03;17.90;;;3.00;99.90;;;;;;5032666;28;21046;-46
2021/03/03 07:14:35;;;;;;;29.50;17.63;;;3.00;99.90;;;;;;5046516;28;20569;-46
2021/03/03 07:17:12;;;;;;;30.73;18.93;;;3.10;99.90;;;;;;5052623;28;21037;-46
2021/03/03 07:19:42;;;;;;;33.30;19.10;;;3.20;99.90;;;;;;5039950;28;20475;-46
2021/03/03 07:22:26;;;;;;;35.10;19.53;;;3.30;99.90;;;;;;5044015;28;20506;-48
2021/03/03 07:25:01;;;;;;;34.40;19.93;;;3.50;99.90;;;;;;5032001;28;21050;-46
2021/03/03 07:27:29;;;;;;;37.50;21.67;;;3.60;99.90;;;;;;5027236;28;20543;-45
2021/03/03 07:29:58;;;;;;;36.17;21.77;;;3.70;99.90;;;;;;5037645;28;20491;-46
2021/03/03 07:32:26;;;;;;;34.83;21.40;;;3.80;99.90;;;;;;5027600;28;20857;-47
2021/03/03 07:34:56;;;;;;;33.57;19.67;;;4.00;99.90;;;;;;5043347;28;20471;-46
2021/03/03 07:37:26;;;;;;;35.17;20.87;;;4.10;99.90;;;;;;5045959;28;20602;-48
2021/03/03 07:40:02;;;;;;;33.70;20.40;;;4.30;99.90;;;;;;5033731;28;20323;-47
2021/03/03 07:42:31;;;;;;;34.63;20.90;;;4.50;99.90;;;;;;5028043;28;20547;-47
2021/03/03 07:45:01;;;;;;;35.33;22.07;;;4.60;99.90;;;;;;5025316;28;20543;-46
2021/03/03 07:47:30;;;;;;;35.47;21.63;;;4.80;99.90;;;;;;5025129;28;20989;-46
2021/03/03 07:50:03;;;;;;;37.57;23.23;;;4.90;99.90;;;;;;5023676;28;20497;-45
2021/03/03 07:52:34;;;;;;;36.50;22.37;;;5.00;99.90;;;;;;5045056;28;20508;-46
2021/03/03 07:55:02;;;;;;;37.13;22.63;;;5.30;99.90;;;;;;5046808;28;20473;-47
2021/03/03 07:57:33;;;;;;;34.97;21.33;;;5.50;99.90;;;;;;5042646;28;20870;-45
2021/03/03 08:00:05;;;;;;;32.13;21.70;;;5.70;99.90;;;;;;5054415;28;20490;-46
2021/03/03 08:02:44;;;;;;;34.23;20.73;;;5.80;99.90;;;;;;5064561;28;20497;-46
2021/03/03 08:05:15;;;;;;;36.23;21.83;;;5.90;99.90;;;;;;5065047;28;20911;-48
2021/03/03 08:07:43;;;;;;;31.70;21.03;;;6.10;99.90;;;;;;5043000;28;20585;-48
2021/03/03 08:10:24;;;;;;;31.50;20.20;;;6.30;99.90;;;;;;5029414;28;20842;-48
2021/03/03 08:13:09;;;;;;;33.17;21.40;;;6.40;99.90;;;;;;5040096;28;20890;-46
2021/03/03 08:16:04;;;;;;;31.57;20.23;;;6.60;99.90;;;;;;5034874;28;20236;-46
2021/03/03 08:18:58;;;;;;;32.97;20.07;;;6.90;99.90;;;;;;5031280;28;20692;-47
2021/03/03 08:21:28;;;;;;;28.57;19.40;;;7.10;99.90;;;;;;5045798;28;20326;-46
2021/03/03 08:23:57;;;;;;;30.87;19.47;;;7.20;99.90;;;;;;5042666;28;20242;-46
2021/03/03 08:26:38;;;;;;;31.93;20.13;;;7.30;99.90;;;;;;5025077;28;20534;-48
2021/03/03 08:29:19;;;;;;;29.30;20.03;;;7.40;99.90;;;;;;5026153;28;20471;-47
2021/03/03 08:31:47;;;;;;;29.57;20.40;;;7.60;99.90;;;;;;5030116;28;20323;-47
2021/03/03 08:34:15;;;;;;;29.13;20.20;;;7.80;99.90;;;;;;5041038;28;20245;-47
2021/03/03 08:37:00;;;;;;;28.83;19.80;;;8.00;99.90;;;;;;5034177;28;20293;-49
2021/03/03 08:39:47;;;;;;;28.60;19.10;;;8.20;99.90;;;;;;5023952;28;20748;-47
2021/03/03 08:42:35;;;;;;;25.00;17.70;;;8.30;99.90;;;;;;5006616;28;20626;-46
2021/03/03 08:45:15;;;;;;;28.17;19.03;;;8.50;99.90;;;;;;5018508;28;20279;-49
2021/03/03 08:47:56;;;;;;;30.43;18.80;;;8.50;99.90;;;;;;5026809;28;20327;-46
2021/03/03 08:50:47;;;;;;;27.23;19.10;;;8.70;99.90;;;;;;5013966;28;20244;-47
2021/03/03 08:53:30;;;;;;;26.77;18.17;;;8.90;99.90;;;;;;5045213;28;20239;-48
2021/03/03 08:56:00;;;;;;;25.70;19.17;;;9.00;99.90;;;;;;5048469;28;20301;-50
2021/03/03 08:59:02;;;;;;;24.60;17.73;;;9.20;99.90;;;;;;5043666;28;20305;-47
2021/03/03 09:01:58;;;;;;;26.37;18.70;;;9.50;99.90;;;;;;5028330;28;20248;-46
2021/03/03 09:04:28;;;;;;;27.47;18.00;;;9.60;99.90;;;;;;5025879;28;20320;-46
2021/03/03 09:06:58;;;;;;;26.63;18.47;;;9.80;99.90;;;;;;5026172;28;20311;-47
2021/03/03 09:09:27;;;;;;;26.27;18.70;;;10.00;99.90;;;;;;5035083;28;20256;-46
2021/03/03 09:12:05;;;;;;;25.37;17.43;;;10.10;99.90;;;;;;5033078;28;20294;-48
2021/03/03 09:14:34;;;;;;;22.60;17.27;;;10.30;99.90;;;;;;5036516;28;20259;-46
2021/03/03 09:17:04;;;;;;;25.47;18.03;;;10.60;99.90;;;;;;5017972;28;20663;-45
2021/03/03 09:19:33;;;;;;;24.60;17.33;;;10.70;99.90;;;;;;5021133;28;20596;-49
2021/03/03 09:22:14;;;;;;;24.67;17.30;;;10.90;99.90;;;;;;5029011;28;20249;-46
2021/03/03 09:24:43;;;;;;;26.43;16.90;;;11.10;99.90;;;;;;5027158;28;20324;-50
2021/03/03 09:27:14;;;;;;;23.93;17.47;;;11.40;99.90;;;;;;5020991;28;20268;-48
2021/03/03 09:29:43;;;;;;;23.93;17.10;;;11.50;99.90;;;;;;5010480;28;20601;-49
2021/03/03 09:32:12;;;;;;;23.77;17.03;;;11.60;99.90;;;;;;5026123;28;20272;-47
2021/03/03 09:34:45;;;;;;;25.53;17.97;;;11.80;99.90;;;;;;5042570;28;20229;-46
2021/03/03 09:37:13;;;;;;;25.03;17.27;;;11.90;99.90;;;;;;5049376;28;20246;-47
2021/03/03 09:39:41;;;;;;;25.53;17.47;;;12.00;99.90;;;;;;5050834;28;20314;-46
2021/03/03 09:42:10;;;;;;;23.17;15.63;;;12.10;99.90;;;;;;5025394;28;20266;-49
2021/03/03 09:44:52;;;;;;;25.37;16.50;;;12.20;99.90;;;;;;5027488;28;20270;-46
2021/03/03 09:47:25;;;;;;;22.03;16.30;;;12.10;99.90;;;;;;5022432;28;20438;-46
2021/03/03 09:49:59;;;;;;;23.40;17.30;;;12.30;99.90;;;;;;5034854;28;20242;-47
2021/03/03 09:52:37;;;;;;;23.43;16.73;;;12.30;99.90;;;;;;5027324;28;20243;-47
2021/03/03 09:55:11;;;;;;;24.17;16.90;;;12.60;99.90;;;;;;5032187;28;20730;-46
2021/03/03 09:57:39;;;;;;;22.50;16.30;;;12.70;99.90;;;;;;5023841;28;20669;-47
2021/03/03 10:00:11;;;;;;;21.77;16.00;;;12.80;99.90;;;;;;5022428;28;20285;-46
2021/03/03 10:02:45;;;;;;;24.93;17.13;;;13.00;99.90;;;;;;5027221;28;20294;-46
2021/03/03 10:05:18;;;;;;;24.60;17.30;;;13.00;99.90;;;;;;5039583;28;20296;-46
2021/03/03 10:07:50;;;;;;;21.87;17.20;;;13.00;99.90;;;;;;5038931;28;20321;-46
2021/03/03 10:10:18;;;;;;;21.77;16.87;;;12.80;99.90;;;;;;5047153;28;20327;-47
2021/03/03 10:12:46;;;;;;;23.27;17.03;;;12.70;99.90;;;;;;5038283;28;20243;-46
2021/03/03 10:15:16;;;;;;;22.80;16.90;;;12.80;99.90;;;;;;5040181;28;20329;-46
2021/03/03 10:17:54;;;;;;;24.93;16.33;;;13.00;99.90;;;;;;5043740;28;20236;-47
2021/03/03 10:20:32;;;;;;;21.87;17.17;;;13.10;99.90;;;;;;5059090;28;20274;-46
2021/03/03 10:23:07;;;;;;;25.43;17.00;;;13.40;99.90;;;;;;5062141;28;20246;-46
2021/03/03 10:25:37;;;;;;;27.30;17.90;;;13.50;99.90;;;;;;5027516;28;20355;-46
2021/03/03 10:28:10;;;;;;;25.40;17.83;;;13.60;99.90;;;;;;5034699;28;20238;-46
2021/03/03 10:30:41;;;;;;;27.20;17.07;;;13.80;99.90;;;;;;5025209;28;20235;-47
2021/03/03 10:33:10;;;;;;;22.20;16.60;;;14.00;99.90;;;;;;5029892;28;20258;-46
2021/03/03 10:35:50;;;;;;;24.47;17.13;;;14.00;99.90;;;;;;5051612;28;20230;-47
2021/03/03 10:38:19;;;;;;;24.03;17.70;;;14.10;99.90;;;;;;5043665;28;20706;-47
2021/03/03 10:40:49;;;;;;;23.83;17.97;;;14.00;99.90;;;;;;5051162;28;20286;-48
2021/03/03 10:43:19;;;;;;;22.73;17.37;;;13.90;99.90;;;;;;5036794;28;20293;-46
2021/03/03 10:45:50;;;;;;;23.90;17.37;;;14.00;99.90;;;;;;5029671;28;20293;-46
2021/03/03 10:48:28;;;;;;;24.70;18.03;;;14.20;99.90;;;;;;5037812;28;20334;-49
2021/03/03 10:50:58;;;;;;;24.63;17.40;;;14.20;99.90;;;;;;5045523;28;20234;-47
2021/03/03 10:53:43;;;;;;;21.53;16.33;;;14.20;99.90;;;;;;5032910;28;20330;-46
2021/03/03 10:56:24;;;;;;;23.00;17.47;;;14.30;99.90;;;;;;5017833;28;20671;-46
2021/03/03 10:58:53;;;;;;;27.13;18.17;;;14.50;99.90;;;;;;5022349;28;20314;-46
2021/03/03 11:01:21;;;;;;;21.90;17.03;;;14.70;99.90;;;;;;5033633;28;20338;-46
2021/03/03 11:03:55;;;;;;;24.17;17.67;;;14.80;99.90;;;;;;5051134;28;20714;-46
2021/03/03 11:06:26;;;;;;;22.90;17.20;;;14.80;99.90;;;;;;5052890;28;20744;-46
2021/03/03 11:08:53;;;;;;;26.33;17.77;;;14.90;99.90;;;;;;5046045;28;20266;-47
2021/03/03 11:11:21;;;;;;;27.57;17.87;;;15.10;99.90;;;;;;5050346;28;20250;-47
2021/03/03 11:13:48;;;;;;;24.37;18.47;;;15.10;99.90;;;;;;5041879;28;20264;-47
2021/03/03 11:16:15;;;;;;;22.73;16.80;;;15.10;99.90;;;;;;5063233;28;20246;-46
2021/03/03 11:18:47;;;;;;;21.87;17.73;;;15.20;99.90;;;;;;5048740;28;20235;-46
2021/03/03 11:21:14;;;;;;;23.60;17.93;;;15.10;99.90;;;;;;5048683;28;20305;-46
2021/03/03 11:23:45;;;;;;;23.80;18.27;;;15.20;99.90;;;;;;5033961;28;20983;-47
2021/03/03 11:26:13;;;;;;;25.20;18.27;;;15.20;99.90;;;;;;5046689;28;20615;-46
2021/03/03 11:28:40;;;;;;;26.23;19.07;;;15.10;99.90;;;;;;5041051;28;20305;-46
2021/03/03 11:31:08;;;;;;;25.87;19.60;;;14.90;99.90;;;;;;5044438;28;20293;-46
2021/03/03 11:33:35;;;;;;;28.90;19.90;;;14.70;99.90;;;;;;5041049;28;20735;-47
2021/03/03 11:36:05;;;;;;;29.87;21.17;;;14.70;99.90;;;;;;5046807;28;20617;-46
2021/03/03 11:38:34;;;;;;;29.00;19.57;;;14.60;99.90;;;;;;5039897;28;20234;-46
2021/03/03 11:41:01;;;;;;;28.83;20.13;;;14.30;99.90;;;;;;5034290;28;20243;-46
2021/03/03 11:43:32;;;;;;;26.73;19.83;;;14.30;99.90;;;;;;5038891;28;20255;-46
2021/03/03 11:45:59;;;;;;;23.70;19.53;;;14.30;99.90;;;;;;5037497;28;20244;-47
2021/03/03 11:48:26;;;;;;;28.73;20.30;;;14.30;99.90;;;;;;5033811;28;20243;-46
2021/03/03 11:50:54;;;;;;;32.37;20.10;;;14.20;99.90;;;;;;5035454;28;20540;-46
2021/03/03 11:53:22;;;;;;;30.73;20.77;;;14.20;99.90;;;;;;5036339;28;20266;-49
2021/03/03 11:55:50;;;;;;;28.80;20.20;;;14.10;99.90;;;;;;5032619;28;20618;-48
2021/03/03 11:58:17;;;;;;;29.27;21.20;;;14.10;99.90;;;;;;5038833;28;20599;-47
2021/03/03 12:00:44;;;;;;;28.90;20.50;;;14.20;99.90;;;;;;5042238;28;20537;-48
2021/03/03 12:03:37;;;;;;;30.30;21.03;;;14.40;99.90;;;;;;5027973;28;20313;-48
2021/03/03 12:06:04;;;;;;;29.50;21.00;;;14.50;99.90;;;;;;5031357;28;20247;-46
2021/03/03 12:08:42;;;;;;;28.97;21.20;;;14.70;99.90;;;;;;5032962;28;20243;-49
2021/03/03 12:11:10;;;;;;;27.50;21.40;;;14.70;99.90;;;;;;5037446;28;20240;-52
2021/03/03 12:13:37;;;;;;;29.43;21.53;;;14.80;99.90;;;;;;5043151;28;20228;-50
2021/03/03 12:16:05;;;;;;;30.33;20.03;;;14.60;99.90;;;;;;5046464;28;20309;-51
2021/03/03 12:18:33;;;;;;;28.60;20.90;;;14.40;99.90;;;;;;5038187;28;20319;-52
2021/03/03 12:21:01;;;;;;;31.27;20.93;;;14.40;99.90;;;;;;5044188;28;20243;-51
2021/03/03 12:23:28;;;;;;;32.27;20.67;;;14.50;99.90;;;;;;5043635;28;20235;-49
2021/03/03 12:25:56;;;;;;;29.40;21.13;;;14.60;99.90;;;;;;5027681;28;20720;-50
2021/03/03 12:28:23;;;;;;;27.97;20.70;;;14.80;99.90;;;;;;5021847;28;20323;-49
2021/03/03 12:30:51;;;;;;;29.60;20.77;;;14.80;99.90;;;;;;5035905;28;20794;-50
2021/03/03 12:33:44;;;;;;;29.70;21.10;;;14.80;99.90;;;;;;5041104;28;20243;-51
2021/03/03 12:36:11;;;;;;;28.50;21.63;;;14.40;99.90;;;;;;5040165;28;20312;-51
2021/03/03 12:38:39;;;;;;;31.90;21.27;;;14.50;99.90;;;;;;5043152;28;20235;-51
2021/03/03 12:41:07;;;;;;;29.57;21.97;;;14.50;99.90;;;;;;5051823;28;20247;-53
2021/03/03 12:43:35;;;;;;;33.47;21.53;;;14.10;99.90;;;;;;5047664;28;20318;-50
2021/03/03 12:46:02;;;;;;;30.07;21.00;;;14.30;99.90;;;;;;5044113;28;20605;-50
2021/03/03 12:48:34;;;;;;;28.90;20.27;;;14.50;99.90;;;;;;5045982;28;20333;-52
2021/03/03 12:51:02;;;;;;;31.23;20.70;;;14.60;99.90;;;;;;5044930;28;20286;-51